sensor_id;sensor_type;location;lat;lon;timestamp;P1;durP1;ratioP1;P2;durP2;ratioP2
20142;SDS011;10509;46.476;7.134;2022-08-25T00:00:28;3.23;;;3.03;;
20142;SDS011;10509;46.476;7.134;2022-08-25T00:02:55;3.27;;;3.07;;
20142;SDS011;10509;46.476;7.134;2022-08-25T00:05:23;3.43;;;3.20;;
20142;SDS011;10509;46.476;7.134;2022-08-25T00:07:49;3.17;;;2.97;;
20142;SDS011;10509;46.476;7.134;2022-08-25T00:10:15;4.10;;;2.90;;
20142;SDS011;10509;46.476;7.134;2022-08-25T00:12:41;3.40;;;3.20;;
20142;SDS011;10509;46.476;7.134;2022-08-25T00:15:08;2.93;;;2.73;;
20142;SDS011;10509;46.476;7.134;2022-08-25T00:17:35;4.23;;;2.90;;
20142;SDS011;10509;46.476;7.134;2022-08-25T00:20:01;3.20;;;2.90;;
20142;SDS011;10509;46.476;7.134;2022-08-25T00:22:27;2.77;;;2.57;;
20142;SDS011;10509;46.476;7.134;2022-08-25T00:24:53;2.93;;;2.73;;
20142;SDS011;10509;46.476;7.134;2022-08-25T00:27:19;2.80;;;2.60;;
20142;SDS011;10509;46.476;7.134;2022-08-25T00:29:45;3.20;;;3.00;;
20142;SDS011;10509;46.476;7.134;2022-08-25T00:32:11;2.80;;;2.60;;
20142;SDS011;10509;46.476;7.134;2022-08-25T00:34:38;3.30;;;3.10;;
20142;SDS011;10509;46.476;7.134;2022-08-25T00:37:05;3.20;;;2.97;;
20142;SDS011;10509;46.476;7.134;2022-08-25T00:39:31;3.07;;;2.87;;
20142;SDS011;10509;46.476;7.134;2022-08-25T00:41:58;2.60;;;2.40;;
20142;SDS011;10509;46.476;7.134;2022-08-25T00:44:25;3.27;;;2.97;;
20142;SDS011;10509;46.476;7.134;2022-08-25T00:46:52;3.70;;;3.20;;
20142;SDS011;10509;46.476;7.134;2022-08-25T00:51:52;3.27;;;2.80;;
20142;SDS011;10509;46.476;7.134;2022-08-25T00:54:19;3.07;;;2.87;;
20142;SDS011;10509;46.476;7.134;2022-08-25T00:56:46;3.53;;;3.33;;
20142;SDS011;10509;46.476;7.134;2022-08-25T00:59:12;3.20;;;3.00;;
20142;SDS011;10509;46.476;7.134;2022-08-25T01:01:39;3.23;;;3.03;;
20142;SDS011;10509;46.476;7.134;2022-08-25T01:04:05;3.30;;;3.10;;
20142;SDS011;10509;46.476;7.134;2022-08-25T01:06:31;3.50;;;3.30;;
20142;SDS011;10509;46.476;7.134;2022-08-25T01:08:58;3.10;;;2.90;;
20142;SDS011;10509;46.476;7.134;2022-08-25T01:11:24;3.60;;;3.30;;
20142;SDS011;10509;46.476;7.134;2022-08-25T01:13:52;3.90;;;3.50;;
20142;SDS011;10509;46.476;7.134;2022-08-25T01:16:19;3.40;;;2.90;;
20142;SDS011;10509;46.476;7.134;2022-08-25T01:21:14;3.00;;;2.80;;
20142;SDS011;10509;46.476;7.134;2022-08-25T01:23:41;4.60;;;3.23;;
20142;SDS011;10509;46.476;7.134;2022-08-25T01:26:09;3.13;;;2.90;;
20142;SDS011;10509;46.476;7.134;2022-08-25T01:28:36;3.30;;;3.10;;
20142;SDS011;10509;46.476;7.134;2022-08-25T01:31:02;3.33;;;3.10;;
20142;SDS011;10509;46.476;7.134;2022-08-25T01:33:29;3.00;;;2.80;;
20142;SDS011;10509;46.476;7.134;2022-08-25T01:35:55;3.50;;;3.20;;
20142;SDS011;10509;46.476;7.134;2022-08-25T01:38:21;3.10;;;2.90;;
20142;SDS011;10509;46.476;7.134;2022-08-25T01:40:47;2.97;;;2.77;;
20142;SDS011;10509;46.476;7.134;2022-08-25T01:45:41;3.33;;;3.03;;
20142;SDS011;10509;46.476;7.134;2022-08-25T01:48:08;3.13;;;2.93;;
20142;SDS011;10509;46.476;7.134;2022-08-25T01:50:34;3.40;;;3.10;;
20142;SDS011;10509;46.476;7.134;2022-08-25T01:55:45;3.00;;;2.80;;
20142;SDS011;10509;46.476;7.134;2022-08-25T01:58:24;3.83;;;3.37;;
20142;SDS011;10509;46.476;7.134;2022-08-25T02:00:51;3.60;;;3.40;;
20142;SDS011;10509;46.476;7.134;2022-08-25T02:03:19;3.53;;;3.33;;
20142;SDS011;10509;46.476;7.134;2022-08-25T02:05:45;3.33;;;3.13;;
20142;SDS011;10509;46.476;7.134;2022-08-25T02:08:11;3.60;;;3.40;;
20142;SDS011;10509;46.476;7.134;2022-08-25T02:10:38;4.20;;;3.90;;
20142;SDS011;10509;46.476;7.134;2022-08-25T02:13:05;4.07;;;3.77;;
20142;SDS011;10509;46.476;7.134;2022-08-25T02:15:31;3.70;;;3.40;;
20142;SDS011;10509;46.476;7.134;2022-08-25T02:17:57;3.87;;;3.50;;
20142;SDS011;10509;46.476;7.134;2022-08-25T02:20:24;3.50;;;3.30;;
20142;SDS011;10509;46.476;7.134;2022-08-25T02:22:50;3.10;;;2.90;;
20142;SDS011;10509;46.476;7.134;2022-08-25T02:25:17;3.97;;;3.57;;
20142;SDS011;10509;46.476;7.134;2022-08-25T02:27:43;9.77;;;2.80;;
20142;SDS011;10509;46.476;7.134;2022-08-25T02:30:10;3.30;;;3.00;;
20142;SDS011;10509;46.476;7.134;2022-08-25T02:32:37;3.47;;;3.17;;
20142;SDS011;10509;46.476;7.134;2022-08-25T02:35:04;3.23;;;3.03;;
20142;SDS011;10509;46.476;7.134;2022-08-25T02:37:30;3.67;;;3.47;;
20142;SDS011;10509;46.476;7.134;2022-08-25T02:39:56;3.67;;;3.37;;
20142;SDS011;10509;46.476;7.134;2022-08-25T02:42:23;3.57;;;3.37;;
20142;SDS011;10509;46.476;7.134;2022-08-25T02:44:49;3.63;;;3.43;;
20142;SDS011;10509;46.476;7.134;2022-08-25T02:47:16;4.93;;;3.60;;
20142;SDS011;10509;46.476;7.134;2022-08-25T02:49:42;3.70;;;3.50;;
20142;SDS011;10509;46.476;7.134;2022-08-25T02:52:08;3.90;;;3.60;;
20142;SDS011;10509;46.476;7.134;2022-08-25T02:54:34;3.67;;;3.47;;
20142;SDS011;10509;46.476;7.134;2022-08-25T02:57:00;4.27;;;3.80;;
20142;SDS011;10509;46.476;7.134;2022-08-25T02:59:26;3.50;;;3.30;;
20142;SDS011;10509;46.476;7.134;2022-08-25T03:01:52;5.50;;;3.50;;
20142;SDS011;10509;46.476;7.134;2022-08-25T03:04:18;3.40;;;3.20;;
20142;SDS011;10509;46.476;7.134;2022-08-25T03:06:44;3.47;;;3.17;;
20142;SDS011;10509;46.476;7.134;2022-08-25T03:09:11;4.83;;;3.40;;
20142;SDS011;10509;46.476;7.134;2022-08-25T03:11:37;3.50;;;3.30;;
20142;SDS011;10509;46.476;7.134;2022-08-25T03:14:06;4.17;;;3.97;;
20142;SDS011;10509;46.476;7.134;2022-08-25T03:16:33;4.07;;;3.77;;
20142;SDS011;10509;46.476;7.134;2022-08-25T03:18:59;3.97;;;3.70;;
20142;SDS011;10509;46.476;7.134;2022-08-25T03:21:26;4.50;;;3.80;;
20142;SDS011;10509;46.476;7.134;2022-08-25T03:23:53;4.10;;;3.80;;
20142;SDS011;10509;46.476;7.134;2022-08-25T03:26:19;4.03;;;3.83;;
20142;SDS011;10509;46.476;7.134;2022-08-25T03:29:04;5.30;;;5.00;;
20142;SDS011;10509;46.476;7.134;2022-08-25T03:31:30;5.03;;;4.73;;
20142;SDS011;10509;46.476;7.134;2022-08-25T03:33:57;4.43;;;4.13;;
20142;SDS011;10509;46.476;7.134;2022-08-25T03:36:23;4.60;;;4.30;;
20142;SDS011;10509;46.476;7.134;2022-08-25T03:38:49;3.77;;;3.47;;
20142;SDS011;10509;46.476;7.134;2022-08-25T03:41:17;3.87;;;3.57;;
20142;SDS011;10509;46.476;7.134;2022-08-25T03:43:44;4.10;;;3.80;;
20142;SDS011;10509;46.476;7.134;2022-08-25T03:46:17;4.33;;;4.00;;
20142;SDS011;10509;46.476;7.134;2022-08-25T03:48:43;3.73;;;3.53;;
20142;SDS011;10509;46.476;7.134;2022-08-25T03:51:09;4.93;;;4.57;;
20142;SDS011;10509;46.476;7.134;2022-08-25T03:53:35;4.20;;;3.90;;
20142;SDS011;10509;46.476;7.134;2022-08-25T03:56:01;4.57;;;4.17;;
20142;SDS011;10509;46.476;7.134;2022-08-25T03:58:28;4.07;;;3.83;;
20142;SDS011;10509;46.476;7.134;2022-08-25T04:00:54;3.80;;;3.60;;
20142;SDS011;10509;46.476;7.134;2022-08-25T04:03:24;3.97;;;3.67;;
20142;SDS011;10509;46.476;7.134;2022-08-25T04:05:50;5.40;;;3.80;;
20142;SDS011;10509;46.476;7.134;2022-08-25T04:08:16;4.13;;;3.87;;
20142;SDS011;10509;46.476;7.134;2022-08-25T04:10:43;4.03;;;3.63;;
20142;SDS011;10509;46.476;7.134;2022-08-25T04:13:09;4.10;;;3.90;;
20142;SDS011;10509;46.476;7.134;2022-08-25T04:15:36;4.30;;;4.00;;
20142;SDS011;10509;46.476;7.134;2022-08-25T04:18:06;4.77;;;4.47;;
20142;SDS011;10509;46.476;7.134;2022-08-25T04:20:32;4.57;;;4.27;;
20142;SDS011;10509;46.476;7.134;2022-08-25T04:22:58;4.47;;;4.20;;
20142;SDS011;10509;46.476;7.134;2022-08-25T04:25:25;4.53;;;4.30;;
20142;SDS011;10509;46.476;7.134;2022-08-25T04:27:52;4.30;;;4.00;;
20142;SDS011;10509;46.476;7.134;2022-08-25T04:30:19;4.23;;;3.83;;
20142;SDS011;10509;46.476;7.134;2022-08-25T04:32:45;5.17;;;4.17;;
20142;SDS011;10509;46.476;7.134;2022-08-25T04:35:12;4.23;;;3.77;;
20142;SDS011;10509;46.476;7.134;2022-08-25T04:37:38;4.07;;;3.80;;
20142;SDS011;10509;46.476;7.134;2022-08-25T04:40:04;6.13;;;3.87;;
20142;SDS011;10509;46.476;7.134;2022-08-25T04:42:31;4.40;;;4.10;;
20142;SDS011;10509;46.476;7.134;2022-08-25T04:44:57;4.27;;;3.83;;
20142;SDS011;10509;46.476;7.134;2022-08-25T04:47:23;4.53;;;4.23;;
20142;SDS011;10509;46.476;7.134;2022-08-25T04:49:50;4.40;;;4.10;;
20142;SDS011;10509;46.476;7.134;2022-08-25T04:52:16;5.00;;;3.80;;
20142;SDS011;10509;46.476;7.134;2022-08-25T04:54:42;4.27;;;3.90;;
20142;SDS011;10509;46.476;7.134;2022-08-25T04:57:08;3.90;;;3.60;;
20142;SDS011;10509;46.476;7.134;2022-08-25T04:59:34;4.17;;;3.97;;
20142;SDS011;10509;46.476;7.134;2022-08-25T05:02:00;3.80;;;3.60;;
20142;SDS011;10509;46.476;7.134;2022-08-25T05:04:27;3.87;;;3.57;;
20142;SDS011;10509;46.476;7.134;2022-08-25T05:06:53;4.60;;;4.30;;
20142;SDS011;10509;46.476;7.134;2022-08-25T05:09:19;4.30;;;3.90;;
20142;SDS011;10509;46.476;7.134;2022-08-25T05:11:45;6.67;;;3.53;;
20142;SDS011;10509;46.476;7.134;2022-08-25T05:14:11;3.93;;;3.60;;
20142;SDS011;10509;46.476;7.134;2022-08-25T05:16:39;4.43;;;4.03;;
20142;SDS011;10509;46.476;7.134;2022-08-25T05:19:06;4.23;;;3.93;;
20142;SDS011;10509;46.476;7.134;2022-08-25T05:21:32;4.03;;;3.63;;
20142;SDS011;10509;46.476;7.134;2022-08-25T05:23:59;4.10;;;3.90;;
20142;SDS011;10509;46.476;7.134;2022-08-25T05:26:26;4.37;;;4.07;;
20142;SDS011;10509;46.476;7.134;2022-08-25T05:28:54;4.43;;;4.10;;
20142;SDS011;10509;46.476;7.134;2022-08-25T05:31:20;4.13;;;3.73;;
20142;SDS011;10509;46.476;7.134;2022-08-25T05:33:46;6.73;;;3.63;;
20142;SDS011;10509;46.476;7.134;2022-08-25T05:36:13;4.27;;;3.97;;
20142;SDS011;10509;46.476;7.134;2022-08-25T05:38:40;3.90;;;3.60;;
20142;SDS011;10509;46.476;7.134;2022-08-25T05:41:08;4.30;;;4.00;;
20142;SDS011;10509;46.476;7.134;2022-08-25T05:43:35;4.40;;;4.00;;
20142;SDS011;10509;46.476;7.134;2022-08-25T05:46:01;3.80;;;3.50;;
20142;SDS011;10509;46.476;7.134;2022-08-25T05:48:27;3.97;;;3.40;;
20142;SDS011;10509;46.476;7.134;2022-08-25T05:50:54;4.00;;;3.67;;
20142;SDS011;10509;46.476;7.134;2022-08-25T05:53:20;7.63;;;4.10;;
20142;SDS011;10509;46.476;7.134;2022-08-25T05:55:47;6.50;;;6.07;;
20142;SDS011;10509;46.476;7.134;2022-08-25T05:58:13;5.43;;;4.93;;
20142;SDS011;10509;46.476;7.134;2022-08-25T06:00:39;4.17;;;3.87;;
20142;SDS011;10509;46.476;7.134;2022-08-25T06:03:05;4.40;;;4.00;;
20142;SDS011;10509;46.476;7.134;2022-08-25T06:05:31;4.30;;;3.90;;
20142;SDS011;10509;46.476;7.134;2022-08-25T06:07:58;5.37;;;3.87;;
20142;SDS011;10509;46.476;7.134;2022-08-25T06:10:24;3.50;;;3.27;;
20142;SDS011;10509;46.476;7.134;2022-08-25T06:12:50;3.80;;;3.50;;
20142;SDS011;10509;46.476;7.134;2022-08-25T06:15:17;3.87;;;3.60;;
20142;SDS011;10509;46.476;7.134;2022-08-25T06:17:44;3.30;;;3.00;;
20142;SDS011;10509;46.476;7.134;2022-08-25T06:20:20;3.30;;;3.10;;
20142;SDS011;10509;46.476;7.134;2022-08-25T06:22:46;4.43;;;3.63;;
20142;SDS011;10509;46.476;7.134;2022-08-25T06:25:14;3.50;;;3.30;;
20142;SDS011;10509;46.476;7.134;2022-08-25T06:27:40;4.13;;;3.50;;
20142;SDS011;10509;46.476;7.134;2022-08-25T06:30:07;4.77;;;4.37;;
20142;SDS011;10509;46.476;7.134;2022-08-25T06:32:34;4.53;;;3.93;;
20142;SDS011;10509;46.476;7.134;2022-08-25T06:35:01;4.30;;;4.00;;
20142;SDS011;10509;46.476;7.134;2022-08-25T06:37:27;4.70;;;4.30;;
20142;SDS011;10509;46.476;7.134;2022-08-25T06:39:53;3.63;;;3.37;;
20142;SDS011;10509;46.476;7.134;2022-08-25T06:42:19;4.90;;;3.37;;
20142;SDS011;10509;46.476;7.134;2022-08-25T06:44:45;3.37;;;3.03;;
20142;SDS011;10509;46.476;7.134;2022-08-25T06:47:12;3.50;;;3.20;;
20142;SDS011;10509;46.476;7.134;2022-08-25T06:49:39;3.40;;;3.20;;
20142;SDS011;10509;46.476;7.134;2022-08-25T06:52:06;3.43;;;3.23;;
20142;SDS011;10509;46.476;7.134;2022-08-25T06:54:32;3.40;;;3.20;;
20142;SDS011;10509;46.476;7.134;2022-08-25T06:56:58;4.90;;;3.17;;
20142;SDS011;10509;46.476;7.134;2022-08-25T06:59:25;4.83;;;3.03;;
20142;SDS011;10509;46.476;7.134;2022-08-25T07:01:51;6.27;;;4.30;;
20142;SDS011;10509;46.476;7.134;2022-08-25T07:04:17;3.57;;;3.20;;
20142;SDS011;10509;46.476;7.134;2022-08-25T07:06:43;4.23;;;3.40;;
20142;SDS011;10509;46.476;7.134;2022-08-25T07:09:10;3.17;;;2.90;;
20142;SDS011;10509;46.476;7.134;2022-08-25T07:11:37;4.72;;;3.40;;
20142;SDS011;10509;46.476;7.134;2022-08-25T07:14:03;2.83;;;2.63;;
20142;SDS011;10509;46.476;7.134;2022-08-25T07:16:31;3.53;;;3.22;;
20142;SDS011;10509;46.476;7.134;2022-08-25T07:18:58;4.82;;;2.92;;
20142;SDS011;10509;46.476;7.134;2022-08-25T07:21:24;3.60;;;3.30;;
20142;SDS011;10509;46.476;7.134;2022-08-25T07:23:51;7.13;;;3.33;;
20142;SDS011;10509;46.476;7.134;2022-08-25T07:26:21;3.75;;;2.65;;
20142;SDS011;10509;46.476;7.134;2022-08-25T07:28:47;3.25;;;3.05;;
20142;SDS011;10509;46.476;7.134;2022-08-25T07:31:13;3.78;;;2.67;;
20142;SDS011;10509;46.476;7.134;2022-08-25T07:33:40;2.92;;;2.72;;
20142;SDS011;10509;46.476;7.134;2022-08-25T07:36:26;3.25;;;3.03;;
20142;SDS011;10509;46.476;7.134;2022-08-25T07:38:52;3.33;;;3.03;;
20142;SDS011;10509;46.476;7.134;2022-08-25T07:41:18;5.30;;;2.60;;
20142;SDS011;10509;46.476;7.134;2022-08-25T07:43:44;2.75;;;2.50;;
20142;SDS011;10509;46.476;7.134;2022-08-25T07:46:11;3.05;;;2.83;;
20142;SDS011;10509;46.476;7.134;2022-08-25T07:48:37;2.85;;;2.65;;
20142;SDS011;10509;46.476;7.134;2022-08-25T07:51:07;7.05;;;3.05;;
20142;SDS011;10509;46.476;7.134;2022-08-25T07:53:34;4.07;;;2.72;;
20142;SDS011;10509;46.476;7.134;2022-08-25T07:56:00;2.60;;;2.40;;
20142;SDS011;10509;46.476;7.134;2022-08-25T07:58:26;8.85;;;3.50;;
20142;SDS011;10509;46.476;7.134;2022-08-25T08:00:52;3.45;;;2.80;;
20142;SDS011;10509;46.476;7.134;2022-08-25T08:03:19;3.42;;;2.40;;
20142;SDS011;10509;46.476;7.134;2022-08-25T08:05:45;4.30;;;2.63;;
20142;SDS011;10509;46.476;7.134;2022-08-25T08:08:11;7.32;;;2.95;;
20142;SDS011;10509;46.476;7.134;2022-08-25T08:10:38;2.88;;;2.63;;
20142;SDS011;10509;46.476;7.134;2022-08-25T08:13:04;4.13;;;2.60;;
20142;SDS011;10509;46.476;7.134;2022-08-25T08:15:30;6.05;;;3.42;;
20142;SDS011;10509;46.476;7.134;2022-08-25T08:17:57;5.10;;;2.90;;
20142;SDS011;10509;46.476;7.134;2022-08-25T08:20:23;3.72;;;3.42;;
20142;SDS011;10509;46.476;7.134;2022-08-25T08:22:49;2.65;;;2.55;;
20142;SDS011;10509;46.476;7.134;2022-08-25T08:25:15;2.92;;;2.72;;
20142;SDS011;10509;46.476;7.134;2022-08-25T08:27:41;2.70;;;2.50;;
20142;SDS011;10509;46.476;7.134;2022-08-25T08:30:09;2.90;;;2.67;;
20142;SDS011;10509;46.476;7.134;2022-08-25T08:32:35;2.72;;;2.50;;
20142;SDS011;10509;46.476;7.134;2022-08-25T08:35:02;6.88;;;3.63;;
20142;SDS011;10509;46.476;7.134;2022-08-25T08:37:29;4.18;;;2.78;;
20142;SDS011;10509;46.476;7.134;2022-08-25T08:39:55;2.55;;;2.35;;
20142;SDS011;10509;46.476;7.134;2022-08-25T08:42:26;3.17;;;2.85;;
20142;SDS011;10509;46.476;7.134;2022-08-25T08:45:15;5.43;;;2.42;;
20142;SDS011;10509;46.476;7.134;2022-08-25T08:52:53;2.40;;;2.20;;
20142;SDS011;10509;46.476;7.134;2022-08-25T08:55:29;2.70;;;2.42;;
20142;SDS011;10509;46.476;7.134;2022-08-25T08:57:56;2.90;;;2.60;;
20142;SDS011;10509;46.476;7.134;2022-08-25T09:00:23;2.58;;;2.38;;
20142;SDS011;10509;46.476;7.134;2022-08-25T09:02:51;2.60;;;2.38;;
20142;SDS011;10509;46.476;7.134;2022-08-25T09:05:19;2.55;;;2.20;;
20142;SDS011;10509;46.476;7.134;2022-08-25T09:10:15;2.47;;;2.28;;
20142;SDS011;10509;46.476;7.134;2022-08-25T09:12:47;2.50;;;2.30;;
20142;SDS011;10509;46.476;7.134;2022-08-25T09:15:19;2.22;;;1.90;;
20142;SDS011;10509;46.476;7.134;2022-08-25T09:25:48;2.55;;;2.28;;
20142;SDS011;10509;46.476;7.134;2022-08-25T09:28:18;2.50;;;2.30;;
20142;SDS011;10509;46.476;7.134;2022-08-25T09:30:51;2.80;;;2.30;;
20142;SDS011;10509;46.476;7.134;2022-08-25T09:33:19;3.45;;;1.83;;
20142;SDS011;10509;46.476;7.134;2022-08-25T09:35:45;2.28;;;2.10;;
20142;SDS011;10509;46.476;7.134;2022-08-25T09:38:12;2.20;;;2.10;;
20142;SDS011;10509;46.476;7.134;2022-08-25T09:40:39;2.47;;;2.28;;
20142;SDS011;10509;46.476;7.134;2022-08-25T09:48:32;2.42;;;1.40;;
20142;SDS011;10509;46.476;7.134;2022-08-25T09:51:47;2.25;;;1.50;;
20142;SDS011;10509;46.476;7.134;2022-08-25T09:53:50;1.52;;;1.30;;
20142;SDS011;10509;46.476;7.134;2022-08-25T09:56:18;2.20;;;1.58;;
20142;SDS011;10509;46.476;7.134;2022-08-25T09:58:44;1.10;;;0.90;;
20142;SDS011;10509;46.476;7.134;2022-08-25T10:01:20;2.97;;;1.00;;
20142;SDS011;10509;46.476;7.134;2022-08-25T10:04:03;2.03;;;0.90;;
20142;SDS011;10509;46.476;7.134;2022-08-25T10:06:32;1.30;;;0.88;;
20142;SDS011;10509;46.476;7.134;2022-08-25T10:09:03;1.35;;;1.10;;
20142;SDS011;10509;46.476;7.134;2022-08-25T10:11:48;1.30;;;0.90;;
20142;SDS011;10509;46.476;7.134;2022-08-25T10:14:18;1.45;;;0.90;;
20142;SDS011;10509;46.476;7.134;2022-08-25T10:16:45;2.25;;;1.00;;
20142;SDS011;10509;46.476;7.134;2022-08-25T10:19:13;2.13;;;0.85;;
20142;SDS011;10509;46.476;7.134;2022-08-25T10:22:01;1.63;;;0.80;;
20142;SDS011;10509;46.476;7.134;2022-08-25T10:24:27;1.05;;;0.90;;
20142;SDS011;10509;46.476;7.134;2022-08-25T10:26:57;1.20;;;0.90;;
20142;SDS011;10509;46.476;7.134;2022-08-25T10:29:30;0.73;;;0.70;;
20142;SDS011;10509;46.476;7.134;2022-08-25T10:36:59;0.75;;;0.75;;
20142;SDS011;10509;46.476;7.134;2022-08-25T10:39:41;2.17;;;0.73;;
20142;SDS011;10509;46.476;7.134;2022-08-25T10:49:54;1.27;;;0.82;;
20142;SDS011;10509;46.476;7.134;2022-08-25T10:52:31;2.97;;;1.00;;
20142;SDS011;10509;46.476;7.134;2022-08-25T10:55:12;1.83;;;0.80;;
20142;SDS011;10509;46.476;7.134;2022-08-25T11:00:37;1.15;;;0.80;;
20142;SDS011;10509;46.476;7.134;2022-08-25T11:03:11;1.40;;;0.80;;
20142;SDS011;10509;46.476;7.134;2022-08-25T11:08:15;2.63;;;1.00;;
20142;SDS011;10509;46.476;7.134;2022-08-25T11:10:44;1.40;;;1.00;;
20142;SDS011;10509;46.476;7.134;2022-08-25T11:13:14;2.85;;;0.93;;
20142;SDS011;10509;46.476;7.134;2022-08-25T11:15:48;1.02;;;0.90;;
20142;SDS011;10509;46.476;7.134;2022-08-25T11:18:15;1.42;;;1.08;;
20142;SDS011;10509;46.476;7.134;2022-08-25T11:20:45;1.75;;;0.80;;
20142;SDS011;10509;46.476;7.134;2022-08-25T11:23:35;1.85;;;0.90;;
20142;SDS011;10509;46.476;7.134;2022-08-25T11:26:06;1.58;;;1.00;;
20142;SDS011;10509;46.476;7.134;2022-08-25T11:31:05;1.13;;;1.00;;
20142;SDS011;10509;46.476;7.134;2022-08-25T11:33:32;0.80;;;0.80;;
20142;SDS011;10509;46.476;7.134;2022-08-25T11:46:49;2.45;;;1.10;;
20142;SDS011;10509;46.476;7.134;2022-08-25T11:51:35;1.15;;;1.00;;
20142;SDS011;10509;46.476;7.134;2022-08-25T11:54:13;2.33;;;0.98;;
20142;SDS011;10509;46.476;7.134;2022-08-25T11:56:40;1.42;;;0.98;;
20142;SDS011;10509;46.476;7.134;2022-08-25T11:59:07;1.70;;;1.23;;
20142;SDS011;10509;46.476;7.134;2022-08-25T12:09:23;3.67;;;1.20;;
20142;SDS011;10509;46.476;7.134;2022-08-25T12:11:50;1.15;;;1.00;;
20142;SDS011;10509;46.476;7.134;2022-08-25T12:27:08;1.77;;;1.35;;
20142;SDS011;10509;46.476;7.134;2022-08-25T12:37:32;1.13;;;1.00;;
20142;SDS011;10509;46.476;7.134;2022-08-25T12:40:00;1.70;;;1.08;;
20142;SDS011;10509;46.476;7.134;2022-08-25T12:42:28;1.67;;;1.10;;
20142;SDS011;10509;46.476;7.134;2022-08-25T12:47:42;4.50;;;1.00;;
20142;SDS011;10509;46.476;7.134;2022-08-25T12:52:59;1.63;;;0.95;;
20142;SDS011;10509;46.476;7.134;2022-08-25T12:55:28;1.63;;;1.05;;
20142;SDS011;10509;46.476;7.134;2022-08-25T12:57:55;1.30;;;1.10;;
20142;SDS011;10509;46.476;7.134;2022-08-25T13:03:09;2.13;;;1.40;;
20142;SDS011;10509;46.476;7.134;2022-08-25T13:10:49;1.75;;;1.27;;
20142;SDS011;10509;46.476;7.134;2022-08-25T13:13:20;2.67;;;1.02;;
20142;SDS011;10509;46.476;7.134;2022-08-25T13:16:08;1.35;;;1.00;;
20142;SDS011;10509;46.476;7.134;2022-08-25T13:18:37;1.52;;;1.23;;
20142;SDS011;10509;46.476;7.134;2022-08-25T13:23:30;4.10;;;1.40;;
20142;SDS011;10509;46.476;7.134;2022-08-25T13:25:59;1.48;;;1.20;;
20142;SDS011;10509;46.476;7.134;2022-08-25T13:28:29;2.05;;;1.00;;
20142;SDS011;10509;46.476;7.134;2022-08-25T13:31:13;1.67;;;1.17;;
20142;SDS011;10509;46.476;7.134;2022-08-25T13:33:46;2.40;;;1.10;;
20142;SDS011;10509;46.476;7.134;2022-08-25T13:36:14;1.17;;;1.05;;
20142;SDS011;10509;46.476;7.134;2022-08-25T13:39:08;2.85;;;1.20;;
20142;SDS011;10509;46.476;7.134;2022-08-25T13:41:35;1.58;;;0.90;;
20142;SDS011;10509;46.476;7.134;2022-08-25T13:44:01;3.47;;;1.13;;
20142;SDS011;10509;46.476;7.134;2022-08-25T13:46:27;1.30;;;1.20;;
20142;SDS011;10509;46.476;7.134;2022-08-25T13:49:04;3.38;;;1.08;;
20142;SDS011;10509;46.476;7.134;2022-08-25T13:51:30;1.20;;;0.95;;
20142;SDS011;10509;46.476;7.134;2022-08-25T13:53:57;1.10;;;1.00;;
20142;SDS011;10509;46.476;7.134;2022-08-25T13:56:27;2.42;;;1.13;;
20142;SDS011;10509;46.476;7.134;2022-08-25T13:58:54;1.33;;;1.00;;
20142;SDS011;10509;46.476;7.134;2022-08-25T14:01:22;1.88;;;1.15;;
20142;SDS011;10509;46.476;7.134;2022-08-25T14:03:50;1.50;;;1.20;;
20142;SDS011;10509;46.476;7.134;2022-08-25T14:08:43;1.42;;;1.15;;
20142;SDS011;10509;46.476;7.134;2022-08-25T14:11:14;1.92;;;1.23;;
20142;SDS011;10509;46.476;7.134;2022-08-25T14:13:58;2.00;;;1.33;;
20142;SDS011;10509;46.476;7.134;2022-08-25T14:16:24;1.30;;;1.10;;
20142;SDS011;10509;46.476;7.134;2022-08-25T14:18:51;1.08;;;0.98;;
20142;SDS011;10509;46.476;7.134;2022-08-25T14:21:19;5.05;;;1.00;;
20142;SDS011;10509;46.476;7.134;2022-08-25T14:23:47;2.47;;;0.90;;
20142;SDS011;10509;46.476;7.134;2022-08-25T14:26:12;1.75;;;1.20;;
20142;SDS011;10509;46.476;7.134;2022-08-25T14:28:39;1.27;;;1.10;;
20142;SDS011;10509;46.476;7.134;2022-08-25T14:31:07;1.23;;;1.05;;
20142;SDS011;10509;46.476;7.134;2022-08-25T14:33:35;2.08;;;0.88;;
20142;SDS011;10509;46.476;7.134;2022-08-25T14:36:02;1.38;;;1.10;;
20142;SDS011;10509;46.476;7.134;2022-08-25T14:38:29;1.50;;;1.00;;
20142;SDS011;10509;46.476;7.134;2022-08-25T14:40:55;1.60;;;1.00;;
20142;SDS011;10509;46.476;7.134;2022-08-25T14:43:21;1.42;;;1.10;;
20142;SDS011;10509;46.476;7.134;2022-08-25T14:45:47;1.20;;;0.95;;
20142;SDS011;10509;46.476;7.134;2022-08-25T14:48:18;1.10;;;1.00;;
20142;SDS011;10509;46.476;7.134;2022-08-25T14:50:46;1.23;;;1.05;;
20142;SDS011;10509;46.476;7.134;2022-08-25T14:53:12;2.35;;;0.82;;
20142;SDS011;10509;46.476;7.134;2022-08-25T14:55:38;2.45;;;1.20;;
20142;SDS011;10509;46.476;7.134;2022-08-25T14:58:04;1.40;;;1.13;;
20142;SDS011;10509;46.476;7.134;2022-08-25T15:00:39;1.83;;;0.82;;
20142;SDS011;10509;46.476;7.134;2022-08-25T15:03:05;1.15;;;0.80;;
20142;SDS011;10509;46.476;7.134;2022-08-25T15:05:31;0.95;;;0.95;;
20142;SDS011;10509;46.476;7.134;2022-08-25T15:07:57;4.65;;;1.00;;
20142;SDS011;10509;46.476;7.134;2022-08-25T15:10:41;1.63;;;1.08;;
20142;SDS011;10509;46.476;7.134;2022-08-25T15:13:07;1.20;;;1.08;;
20142;SDS011;10509;46.476;7.134;2022-08-25T15:15:35;1.20;;;0.90;;
20142;SDS011;10509;46.476;7.134;2022-08-25T15:18:02;1.58;;;0.90;;
20142;SDS011;10509;46.476;7.134;2022-08-25T15:20:29;1.50;;;1.00;;
20142;SDS011;10509;46.476;7.134;2022-08-25T15:22:55;2.13;;;1.10;;
20142;SDS011;10509;46.476;7.134;2022-08-25T15:25:21;1.05;;;0.90;;
20142;SDS011;10509;46.476;7.134;2022-08-25T15:27:48;1.50;;;1.00;;
20142;SDS011;10509;46.476;7.134;2022-08-25T15:30:14;1.23;;;0.90;;
20142;SDS011;10509;46.476;7.134;2022-08-25T15:32:41;1.33;;;1.20;;
20142;SDS011;10509;46.476;7.134;2022-08-25T15:35:07;1.70;;;1.08;;
20142;SDS011;10509;46.476;7.134;2022-08-25T15:37:33;1.58;;;1.13;;
20142;SDS011;10509;46.476;7.134;2022-08-25T15:39:59;1.95;;;1.13;;
20142;SDS011;10509;46.476;7.134;2022-08-25T15:42:26;2.42;;;1.00;;
20142;SDS011;10509;46.476;7.134;2022-08-25T15:44:52;1.40;;;1.00;;
20142;SDS011;10509;46.476;7.134;2022-08-25T15:47:20;1.77;;;1.00;;
20142;SDS011;10509;46.476;7.134;2022-08-25T15:49:46;0.75;;;0.73;;
20142;SDS011;10509;46.476;7.134;2022-08-25T15:52:12;3.13;;;1.20;;
20142;SDS011;10509;46.476;7.134;2022-08-25T15:54:38;1.70;;;1.00;;
20142;SDS011;10509;46.476;7.134;2022-08-25T15:57:04;1.33;;;1.00;;
20142;SDS011;10509;46.476;7.134;2022-08-25T15:59:30;1.88;;;0.90;;
20142;SDS011;10509;46.476;7.134;2022-08-25T16:01:56;1.08;;;0.90;;
20142;SDS011;10509;46.476;7.134;2022-08-25T16:04:24;1.35;;;1.25;;
20142;SDS011;10509;46.476;7.134;2022-08-25T16:06:51;2.15;;;0.88;;
20142;SDS011;10509;46.476;7.134;2022-08-25T16:09:17;1.20;;;1.10;;
20142;SDS011;10509;46.476;7.134;2022-08-25T16:11:43;1.23;;;0.93;;
20142;SDS011;10509;46.476;7.134;2022-08-25T16:14:09;1.17;;;0.80;;
20142;SDS011;10509;46.476;7.134;2022-08-25T16:16:36;1.42;;;1.15;;
20142;SDS011;10509;46.476;7.134;2022-08-25T16:19:02;1.02;;;0.93;;
20142;SDS011;10509;46.476;7.134;2022-08-25T16:21:32;1.55;;;1.08;;
20142;SDS011;10509;46.476;7.134;2022-08-25T16:24:01;3.10;;;1.00;;
20142;SDS011;10509;46.476;7.134;2022-08-25T16:26:28;0.80;;;0.80;;
20142;SDS011;10509;46.476;7.134;2022-08-25T16:28:54;1.45;;;1.00;;
20142;SDS011;10509;46.476;7.134;2022-08-25T16:31:20;0.95;;;0.90;;
20142;SDS011;10509;46.476;7.134;2022-08-25T16:33:46;1.80;;;1.00;;
20142;SDS011;10509;46.476;7.134;2022-08-25T16:36:22;1.10;;;0.85;;
20142;SDS011;10509;46.476;7.134;2022-08-25T16:38:49;1.15;;;1.00;;
20142;SDS011;10509;46.476;7.134;2022-08-25T16:41:20;1.73;;;0.90;;
20142;SDS011;10509;46.476;7.134;2022-08-25T16:43:46;0.90;;;0.80;;